Burley, Idaho
Current Conditions -  °F | °C
As of 10:53 AM on Friday 28 Nov 2014 (Local Time) from KBYI Reporting Station
Clear Clear  
Wind Chill: 56°   Ceiling: Unl
Heat Index: 56°   Visibility: 10mi
Dew Point: 22°   Wind: 20mph
Humidity: 27%   Direction: 210°SSW
Pressure: 29.88"   Gusts: 26mph
Location:  42.53°N, 113.79°W
Report Text: KBYI 281753Z AUTO 21017G23KT 10SM CLR 13/M06 A2988 RMK AO2 SLP096 T01331056 10133 20089 58006
Loading
Personal Weather Stations






























Interactive Weather Map New forecast layout! Learn more

10-Day Weather Forecast

Advertisements
Track Severe Weather on mobile